Historyczne dane pomiarowe

Dodano dane terminowe – wersja testowa.

Dane z okresu 1951-2019

Wersja bazy: 1.34 [2019-03-16, lista zmian], aktualizacja planowana na 2019-04-15

Dane meteo z obszaru Polski uzyskane na podstawie danych udostępnionych przez Instytut Meteorologii i Gospodarki Wodnej – Państwowy Instytut Badawczy.

 

Wybierz Datę:    

       

TemperaturaWilgotnośćWiatrCiśnienieOpadyŚniegCzas trwania zjawisk
 Stacja t tx tn tng RH VA  wxwx mslp ppp RRR   cm mm wxwxwxwxwxwxwx
1962-02-25 -5.1 -2.6-10.1- 86.8- 8.0 7.0---- 2.4-- 23---------
1962-02-26 -4.4 -2.6 -5.3- 86.8- 8.0 4.3---- 0.0-- 25---------
1962-02-27-10.1 -4.4-14.5- 83.3- 3.0 2.3---- 0.0-- 25---------
1962-02-28 -8.8 -4.4-16.1- 83.0- 4.7 1.3---- 0.0-- 25---------
1962-03-01 -8.7 -3.3-11.8- 82.5- 2.7 1.7---- 0.0-- 25---------
1962-03-02 -6.6 -2.5-18.9- 85.0- 8.0 0.7---- 0.0-- 25---------
1962-03-03 -5.4 -0.4 -8.8- 87.5- 8.0 0.7---- 0.0-- 25---------
1962-03-04 -0.6 1.2 -7.7- 94.3- 8.0 1.7---- 4.9-- 25---------
1962-03-05 1.4 2.4 0.4- 99.0- 8.0 1.7---- 2.2-- 19---------
1962-03-06 1.8 7.9 -1.7- 86.8- 8.0 4.3---- 0.3-- 17---------
1962-03-07 -2.7 -1.2 -3.8- 72.0- 7.7 4.7---- 0.0-- 14---------
1962-03-08 -3.2 -0.7 -9.6- 76.0- 3.3 3.3---- 0.0-- 13---------
1962-03-09 -4.1 -0.5 -6.6- 73.5- 2.7 2.3---- 0.0-- 13---------
1962-03-10 -2.5 1.1 -8.2- 59.0- 2.0 9.0---- 0.2-- 13---------
1962-03-11 1.0 3.5 -2.9- 81.0- 8.0 2.7---- 0.0-- 13---------
1962-03-12 0.6 3.0 -1.0- 88.0- 8.0 1.7---- 3.6-- 10---------
1962-03-13 -3.9 0.2 -6.9- 88.0- 8.0 5.3---- 3.4-- 14---------
1962-03-14 -7.4 -2.9 -8.7- 83.5- 2.3 5.7---- 0.0-- 17---------
1962-03-15 -7.9 -4.0-15.5- 85.0- 8.0 1.0---- 0.0-- 17---------
1962-03-16 -6.9 -5.8 -7.8- 83.8- 8.0 10.3---- 5.0-- 17---------
1962-03-17 -5.4 -4.3 -7.9- 92.5- 8.0 10.7---- 6.5-- 26---------
1962-03-18 -4.6 -0.8 -7.7- 73.8- 4.0 7.7---- 0.0-- 35---------
1962-03-19 -8.2 -2.4-12.6- 81.3- 4.7 1.3---- 0.0-- 35---------
1962-03-20 -9.5 -0.7-18.6- 75.5- 2.3 1.3---- 0.0-- 35---------
1962-03-21-10.7 -2.9-20.7- 80.8- 0.7 1.7---- 0.0-- 35---------
1962-03-22 -6.5 -2.0-16.8- 87.3- 7.7 3.3---- 2.2-- 35---------
1962-03-23 -1.1 0.9-13.2- 95.3- 8.0 2.7---- 7.0-- 39---------
1962-03-24 -2.7 -0.4 -4.1- 89.8- 7.0 2.7---- 0.2-- 49---------
1962-03-25 -9.1 -0.4-17.0- 81.8- 0.0 1.7---- 0.0-- 49---------
1962-03-26 -8.6 0.5-19.7- 75.5- 0.0 1.0---- 0.0-- 49---------
208.6 ms

 

Źródłem pochodzenia danych jest Instytut Meteorologii i Gospodarki Wodnej – Państwowy Instytut Badawczy. Dane Instytutu Meteorologii i Gospodarki Wodnej – Państwowego Instytutu Badawczego zostały przetworzone.

Dane źródłowe można odnaleźć na stronie https://dane.imgw.pl